Pizhma — UDVD — position and weather

sailwx.info

Track history (hours):
 
Tides and Currents Weather Stations Pressure Air Temp Water Temp Dewpoint Dewpoint Depression Visibility Wind Speed Wind Dir Waves Ship Positions

Pizhma

Last reported at 2017-Oct-18 08:01 UTC. Time now 2017-Oct-18 22:33 UTC.
Position N 49°48' W 004°01'.

Length 95 m; draft 6.3 m.

Type: Cargo ship. MMSI: 273413510.

Date/timePositionNaut miles runAvg speedWind from/ knotsBaromVisibWave heightAir tempDewpointWater temp
2017-Oct-18 08:01N 49°48' W 004°01'810.9
2017-Oct-18 07:17N 49°51' W 003°50'410.6
2017-Oct-18 06:53N 49°53' W 003°44'410.2
2017-Oct-18 06:27N 49°54' W 003°37'4 9.8
2017-Oct-18 06:01N 49°55' W 003°31'5 9.5
2017-Oct-18 05:30N 49°56' W 003°23'5 9.5
2017-Oct-18 05:00N 49°57' W 003°16'5 9.7
2017-Oct-18 04:30N 49°59' W 003°09'510.0
2017-Oct-18 04:01N 49°60' W 003°01'510.5
2017-Oct-18 03:30N 50°01' W 002°53'611.0
2017-Oct-18 02:59N 50°03' W 002°45'6913.1
2017-Oct-17 21:43N 50°22' W 001°01'310.7
2017-Oct-17 21:24N 50°23' W 000°56'12 9.1
2017-Oct-17 20:05N 50°26' W 000°38'2 8.1
2017-Oct-17 19:48N 50°27' W 000°34'3 8.0
2017-Oct-17 19:29N 50°27' W 000°30'4 8.2
2017-Oct-17 19:00N 50°28' W 000°24'4 8.5
2017-Oct-17 18:30N 50°29' W 000°18'4 8.9
2017-Oct-17 18:00N 50°30' W 000°11'5 9.4
2017-Oct-17 17:30N 50°31' W 000°04'5 9.8
2017-Oct-17 17:00N 50°32' E 000°03'510.4
2017-Oct-17 16:30N 50°34' E 000°11'611.0
2017-Oct-17 16:00N 50°35' E 000°20'611.4
2017-Oct-17 15:30N 50°37' E 000°28'611.6
2017-Oct-17 15:00N 50°39' E 000°37'611.6
2017-Oct-17 14:30N 50°42' E 000°44'611.2
2017-Oct-17 14:00N 50°46' E 000°52'5 9.9
2017-Oct-17 13:30N 50°48' E 000°58'4 8.8
2017-Oct-17 13:00N 50°51' E 001°03'5 9.8
2017-Oct-17 12:30N 50°54' E 001°10'5 9.2
2017-Oct-17 12:00N 50°57' E 001°15'4 8.3
2017-Oct-17 11:30N 50°60' E 001°20'4 7.7
2017-Oct-17 11:00N 51°02' E 001°25'4 7.1
2017-Oct-17 10:30N 51°05' E 001°29'4 7.3
2017-Oct-17 10:00N 51°07' E 001°33'4 7.5
2017-Oct-17 09:30N 51°09' E 001°38'4 8.3
2017-Oct-17 09:00N 51°12' E 001°43'5 9.2
2017-Oct-17 08:30N 51°16' E 001°47'510.5
2017-Oct-17 08:00N 51°21' E 001°50'611.2
2017-Oct-17 07:30N 51°26' E 001°55'611.9
2017-Oct-17 07:00N 51°30' E 002°01'612.0
2017-Oct-17 06:30N 51°34' E 002°08'811.7
2017-Oct-17 05:47N 51°41' E 002°17'18 8.3
2017-Oct-17 03:37N 51°55' E 002°35'9 5.2
2017-Oct-17 01:48N 52°02' E 002°45'2 4.3
2017-Oct-17 01:26N 52°03' E 002°47'2 4.0
2017-Oct-17 00:58N 52°04' E 002°49'2 5.0
2017-Oct-17 00:29N 52°06' E 002°52'3 7.0
2017-Oct-17 00:00N 52°09' E 002°55'4 7.8
2017-Oct-16 23:29N 52°12' E 002°59'4 8.1
2017-Oct-16 22:59N 52°15' E 003°03'4 8.5
2017-Oct-16 22:29N 52°19' E 003°07'4 9.2
2017-Oct-16 22:00N 52°22' E 003°11'5 9.7
2017-Oct-16 21:30N 52°26' E 003°16'510.3
2017-Oct-16 21:00N 52°30' E 003°21'510.6
2017-Oct-16 20:30N 52°35' E 003°26'610.9
2017-Oct-16 20:00N 52°39' E 003°32'511.0
2017-Oct-16 19:30N 52°43' E 003°37'611.1
2017-Oct-16 18:58N 52°48' E 003°43'2110.5
2017-Oct-16 16:56N 53°03' E 004°08'510.0
2017-Oct-16 16:29N 53°06' E 004°14'5 9.7
2017-Oct-16 16:00N 53°09' E 004°20'12 9.3
2017-Oct-16 14:41N 53°20' E 004°30'11 9.2
2017-Oct-16 13:29N 53°30' E 004°35'5 9.7
2017-Oct-16 13:00N 53°35' E 004°38'510.1
2017-Oct-16 12:30N 53°40' E 004°40'510.5
2017-Oct-16 11:59N 53°45' E 004°44'610.7
2017-Oct-16 11:25N 53°50' E 004°47'261 9.7
2017-Oct-15 08:29N 57°35' E 008°44'5 9.6
2017-Oct-15 08:00N 57°36' E 008°52'6 9.8
2017-Oct-15 07:26N 57°38' E 009°01'5 9.9
2017-Oct-15 06:57N 57°40' E 009°10'510.2
2017-Oct-15 06:28N 57°41' E 009°19'510.3
2017-Oct-15 06:00N 57°42' E 009°28'510.4
2017-Oct-15 05:29N 57°44' E 009°37'510.4
2017-Oct-15 05:00N 57°45' E 009°46'510.4
2017-Oct-15 04:30N 57°47' E 009°56'510.4
2017-Oct-15 04:00N 57°48' E 010°05'510.2
2017-Oct-15 03:30N 57°50' E 010°14'510.0
2017-Oct-15 03:00N 57°52' E 010°23'510.0
2017-Oct-15 02:30N 57°53' E 010°31'5 9.9
2017-Oct-15 02:00N 57°52' E 010°40'5 9.6
2017-Oct-15 01:30N 57°49' E 010°47'5 9.2
2017-Oct-15 00:59N 57°45' E 010°53'5 9.5
2017-Oct-15 00:30N 57°42' E 010°59'5 9.3
2017-Oct-14 23:59N 57°39' E 011°05'5 9.6
2017-Oct-14 23:30N 57°35' E 011°12'510.0
2017-Oct-14 23:00N 57°32' E 011°19'510.0
2017-Oct-14 22:30N 57°29' E 011°25'510.2
2017-Oct-14 22:00N 57°24' E 011°29'510.7
2017-Oct-14 21:30N 57°19' E 011°32'510.3
2017-Oct-14 20:59N 57°14' E 011°35'510.3
2017-Oct-14 20:30N 57°09' E 011°39'510.3
2017-Oct-14 20:00N 57°04' E 011°42'510.6
2017-Oct-14 19:29N 56°59' E 011°45'510.5
2017-Oct-14 18:58N 56°54' E 011°48'510.4
2017-Oct-14 18:30N 56°49' E 011°51'39 9.7
2017-Oct-14 14:29N 56°13' E 012°17'510.3
2017-Oct-14 14:00N 56°10' E 012°24'5 9.9
2017-Oct-14 13:30N 56°08' E 012°32'5 9.2
2017-Oct-14 13:00N 56°04' E 012°37'5 9.0
2017-Oct-14 12:30N 56°00' E 012°41'510.1
2017-Oct-14 12:00N 55°56' E 012°44'510.2
2017-Oct-14 11:31N 55°51' E 012°44'510.6
2017-Oct-14 11:00N 55°45' E 012°42'510.2
2017-Oct-14 10:30N 55°40' E 012°42'5 9.7
2017-Oct-14 10:00N 55°35' E 012°42'5 9.9
2017-Oct-14 09:29N 55°30' E 012°43'510.7
2017-Oct-14 08:59N 55°25' E 012°42'510.6
2017-Oct-14 08:30N 55°20' E 012°41'4 8.3
2017-Oct-14 07:59N 55°17' E 012°47'5 9.8
2017-Oct-14 07:29N 55°16' E 012°55'2410.0
2017-Oct-14 05:04N 55°14' E 013°38'1 9.7
2017-Oct-14 04:57N 55°14' E 013°39'13 9.8
2017-Oct-14 03:36N 55°14' E 014°03'1 9.6
2017-Oct-14 03:28N 55°13' E 014°05'5 9.6
2017-Oct-14 02:56N 55°13' E 014°14'4 9.3
2017-Oct-14 02:29N 55°15' E 014°20'510.0
2017-Oct-14 02:00N 55°19' E 014°25'510.0
2017-Oct-14 01:30N 55°23' E 014°30'510.1
2017-Oct-14 00:58N 55°27' E 014°37'510.0
2017-Oct-14 00:26N 55°30' E 014°45'510.0
2017-Oct-13 23:57N 55°32' E 014°52'510.1
2017-Oct-13 23:30N 55°35' E 014°59'510.2
2017-Oct-13 23:00N 55°37' E 015°07'510.3
2017-Oct-13 22:30N 55°40' E 015°15'510.4
2017-Oct-13 22:00N 55°42' E 015°23'510.6
2017-Oct-13 21:30N 55°45' E 015°31'510.7
2017-Oct-13 21:00N 55°48' E 015°39'510.8
2017-Oct-13 20:30N 55°51' E 015°47'510.9
2017-Oct-13 20:00N 55°53' E 015°56'510.9
2017-Oct-13 19:30N 55°56' E 016°04'611.0
2017-Oct-13 19:00N 55°59' E 016°13'611.3
2017-Oct-13 18:30N 56°02' E 016°21'611.5
2017-Oct-13 18:00N 56°04' E 016°30'611.4
2017-Oct-13 17:30N 56°07' E 016°39'510.8
2017-Oct-13 17:00N 56°11' E 016°46'511.0
2017-Oct-13 16:30N 56°16' E 016°50'232 8.4
2017-Oct-12 12:45N 59°20' E 021°16'1610.1
2017-Oct-12 11:09N 59°23' E 021°47'2 9.9
2017-Oct-12 10:59N 59°24' E 021°47'38 9.9
2017-Oct-12 07:10N 59°36' E 022°57'211.0
2017-Oct-12 07:00N 59°37' E 023°01'511.0
2017-Oct-12 06:30N 59°38' E 023°11'611.0
2017-Oct-12 06:00N 59°39' E 023°22'611.2
2017-Oct-12 05:30N 59°41' E 023°33'611.5
2017-Oct-12 05:00N 59°42' E 023°44'611.2
2017-Oct-12 04:30N 59°44' E 023°54'610.8
2017-Oct-12 03:56N 59°45' E 024°06'511.0
2017-Oct-12 03:30N 59°46' E 024°15'611.1
2017-Oct-12 03:00N 59°48' E 024°26'611.1
2017-Oct-12 02:31N 59°49' E 024°37'611.0
2017-Oct-12 02:00N 59°50' E 024°47'610.8
2017-Oct-12 01:28N 59°52' E 024°58'3811.0
2017-Oct-11 22:03N 59°59' E 026°12'010.8
2017-Oct-11 22:00N 59°59' E 026°13'510.9
2017-Oct-11 21:31N 59°60' E 026°24'611.6
2017-Oct-11 21:00N 60°01' E 026°35'510.2
2017-Oct-11 20:30N 60°01' E 026°45'611.9
2017-Oct-11 20:00N 59°60' E 026°57'4 8.6
2017-Oct-11 19:30N 59°60' E 027°05'510.8
2017-Oct-11 19:01N 60°03' E 027°15'510.7
2017-Oct-11 18:31N 60°06' E 027°24'510.8
2017-Oct-11 18:00N 60°09' E 027°32'510.8
2017-Oct-11 17:30N 60°12' E 027°42'5 9.7
2017-Oct-11 17:00N 60°12' E 027°51'73 4.3
2017-Oct-10 23:59N 59°54' E 030°13'0 0.0
2017-Oct-10 23:30N 59°54' E 030°13'0 0.0
2017-Oct-10 22:58N 59°54' E 030°13'0 0.0
2017-Oct-10 22:24N 59°54' E 030°13'0 0.0
2017-Oct-10 22:00N 59°54' E 030°13'0 0.0
2017-Oct-10 21:30N 59°54' E 030°13'0 0.0
2017-Oct-10 21:00N 59°54' E 030°13'0 0.0
2017-Oct-10 20:24N 59°54' E 030°13'0 0.0
2017-Oct-10 19:53N 59°54' E 030°13'0 0.0
2017-Oct-10 19:26N 59°54' E 030°13'0 0.0
2017-Oct-10 18:58N 59°54' E 030°13'0 0.0
2017-Oct-10 18:30N 59°54' E 030°13'0 0.0
2017-Oct-10 17:50N 59°54' E 030°13'0 0.0
2017-Oct-10 17:29N 59°54' E 030°13'0 0.0
2017-Oct-10 16:57N 59°54' E 030°13'0 0.0
2017-Oct-10 16:29N 59°54' E 030°13'0 0.0
2017-Oct-10 15:58N 59°54' E 030°13'0 0.0
2017-Oct-10 15:29N 59°54' E 030°13'0 0.0
2017-Oct-10 15:00N 59°54' E 030°13'0 0.0
2017-Oct-10 13:53N 59°54' E 030°13'0 0.0
2017-Oct-10 13:28N 59°54' E 030°13'0 0.0
2017-Oct-10 12:55N 59°54' E 030°13'0 0.0
2017-Oct-10 12:24N 59°54' E 030°13'0 0.0
2017-Oct-10 11:59N 59°54' E 030°13'0 0.0
2017-Oct-10 11:26N 59°54' E 030°13'0 0.0
2017-Oct-10 10:55N 59°54' E 030°13'0 0.0
2017-Oct-10 10:30N 59°54' E 030°13'0 0.0
2017-Oct-10 09:56N 59°54' E 030°13'0 0.0
2017-Oct-10 09:28N 59°54' E 030°13'0 0.0
2017-Oct-10 08:57N 59°54' E 030°13'0 0.0
2017-Oct-10 08:30N 59°54' E 030°13'0 0.0
2017-Oct-10 08:00N 59°54' E 030°13'0 0.0
2017-Oct-10 07:30N 59°54' E 030°13'0 0.0
2017-Oct-10 06:58N 59°54' E 030°13'0 0.0
2017-Oct-10 06:29N 59°54' E 030°13'0 0.0
2017-Oct-10 05:58N 59°54' E 030°13'0 0.0
2017-Oct-10 05:29N 59°54' E 030°13'0 0.0
2017-Oct-10 04:58N 59°54' E 030°13'0 0.0
2017-Oct-10 04:23N 59°54' E 030°13'0 0.0
2017-Oct-10 03:53N 59°54' E 030°13'0 0.0
2017-Oct-10 03:30N 59°54' E 030°13'0 0.0
2017-Oct-10 02:55N 59°54' E 030°13'0 0.0
2017-Oct-10 02:29N 59°54' E 030°13'0 0.0
2017-Oct-10 01:58N 59°54' E 030°13'0 0.0
2017-Oct-10 01:29N 59°54' E 030°13'0 0.0
2017-Oct-10 00:57N 59°54' E 030°13'0 0.0
2017-Oct-10 00:23N 59°54' E 030°13'0 0.0
2017-Oct-09 23:58N 59°54' E 030°13'0 0.0
2017-Oct-09 23:28N 59°54' E 030°13'0 0.0
2017-Oct-09 22:59N 59°54' E 030°13'0 0.0
2017-Oct-09 22:23N 59°54' E 030°13'0 0.0
2017-Oct-09 21:58N 59°54' E 030°13'0 0.0
2017-Oct-09 21:29N 59°54' E 030°13'0 0.0
2017-Oct-09 21:00N 59°54' E 030°13'0 0.0
2017-Oct-09 20:27N 59°54' E 030°13'0 0.0
2017-Oct-09 19:58N 59°54' E 030°13'0 0.0
2017-Oct-09 19:29N 59°54' E 030°13'0 0.0
2017-Oct-09 18:56N 59°54' E 030°13'0 0.0
2017-Oct-09 18:29N 59°54' E 030°13'0 0.0
2017-Oct-09 17:58N 59°54' E 030°13'0 0.0
2017-Oct-09 17:30N 59°54' E 030°13'0 0.0
2017-Oct-09 17:00N 59°54' E 030°13'0 0.0
2017-Oct-09 16:27N 59°54' E 030°13'0 0.0
2017-Oct-09 15:53N 59°54' E 030°13'0 0.0
2017-Oct-09 15:27N 59°54' E 030°13'0 0.0
2017-Oct-09 14:57N 59°54' E 030°13'0 0.0
2017-Oct-09 14:30N 59°54' E 030°13'0 0.0
2017-Oct-09 13:53N 59°54' E 030°13'0 0.0
2017-Oct-09 13:30N 59°54' E 030°13'0 0.0
2017-Oct-09 12:59N 59°54' E 030°13'0 0.0
2017-Oct-09 12:25N 59°54' E 030°13'0 0.0
2017-Oct-09 11:59N 59°54' E 030°13'0 0.0
2017-Oct-09 11:29N 59°54' E 030°13'0 0.0
2017-Oct-09 10:58N 59°54' E 030°13'0 0.0
2017-Oct-09 10:25N 59°54' E 030°13'0 0.0
2017-Oct-09 10:00N 59°54' E 030°13'0 0.0
2017-Oct-09 09:30N 59°54' E 030°13'0 0.0
2017-Oct-09 08:54N 59°54' E 030°13'0 0.0
2017-Oct-09 08:28N 59°54' E 030°13'0 0.0
2017-Oct-09 07:57N 59°54' E 030°13'0 0.0
2017-Oct-09 07:29N 59°54' E 030°13'0 0.0
2017-Oct-09 06:56N 59°54' E 030°13'0 0.0
2017-Oct-09 06:24N 59°54' E 030°13'0 0.0
2017-Oct-09 05:59N 59°54' E 030°13'0 0.0
2017-Oct-09 05:27N 59°54' E 030°13'0 0.0
2017-Oct-09 05:00N 59°54' E 030°13'0 0.0
2017-Oct-09 04:25N 59°54' E 030°13'0 0.0
2017-Oct-09 04:00N 59°54' E 030°13'0 0.0
2017-Oct-09 03:30N 59°54' E 030°13'0 0.0
2017-Oct-09 02:57N 59°54' E 030°13'0 0.0
2017-Oct-09 02:30N 59°54' E 030°13'0 0.0
2017-Oct-09 01:59N 59°54' E 030°13'0 0.0
2017-Oct-09 01:29N 59°54' E 030°13'0 0.0
2017-Oct-09 01:00N 59°54' E 030°13'0 0.0
2017-Oct-09 00:23N 59°54' E 030°13'0 0.0
2017-Oct-09 00:00N 59°54' E 030°13'0 0.0
2017-Oct-08 23:30N 59°54' E 030°13'0 0.0
2017-Oct-08 22:58N 59°54' E 030°13'0 0.0
2017-Oct-08 22:30N 59°54' E 030°13'0 0.0
2017-Oct-08 22:00N 59°54' E 030°13'0 0.0
2017-Oct-08 21:28N 59°54' E 030°13'0 0.0
2017-Oct-08 20:57N 59°54' E 030°13'0 0.0
2017-Oct-08 20:30N 59°54' E 030°13'0 0.0
2017-Oct-08 19:59N 59°54' E 030°13'0 0.0
2017-Oct-08 19:28N 59°54' E 030°13'0 0.0
2017-Oct-08 19:00N 59°54' E 030°13'0 0.0
2017-Oct-08 18:30N 59°54' E 030°13'0 0.0
2017-Oct-08 17:59N 59°54' E 030°13'0 0.0
2017-Oct-08 17:29N 59°54' E 030°13'0 0.0
2017-Oct-08 16:59N 59°54' E 030°13'0 0.0
2017-Oct-08 16:28N 59°54' E 030°13'0 0.0
2017-Oct-08 15:53N 59°54' E 030°13'0 0.0
2017-Oct-08 15:29N 59°54' E 030°13'0 0.0
2017-Oct-08 14:57N 59°54' E 030°13'0 0.1
2017-Oct-08 14:31N 59°53' E 030°13'2 3.7
2017-Oct-08 14:00N 59°53' E 030°09'4 7.7
2017-Oct-08 13:31N 59°55' E 030°02'510.6
2017-Oct-08 13:00N 59°57' E 029°52'510.0
2017-Oct-08 12:30N 59°59' E 029°43'  
Track history (hours):
 
Tides and Currents Weather Stations Pressure Air Temp Water Temp Dewpoint Dewpoint Depression Visibility Wind Speed Wind Dir Waves Ship Positions

Pizhma

Last reported at 2017-Oct-18 08:01 UTC. Time now 2017-Oct-18 22:33 UTC.
Position N 49°48' W 004°01'.

Length 95 m; draft 6.3 m.

Type: Cargo ship. MMSI: 273413510.

Date/timePositionNaut miles runAvg speedWind from/ knotsBaromVisibWave heightAir tempDewpointWater temp
2017-Oct-18 08:01N 49°48' W 004°01'810.9
2017-Oct-18 07:17N 49°51' W 003°50'410.6
2017-Oct-18 06:53N 49°53' W 003°44'410.2
2017-Oct-18 06:27N 49°54' W 003°37'4 9.8
2017-Oct-18 06:01N 49°55' W 003°31'5 9.5
2017-Oct-18 05:30N 49°56' W 003°23'5 9.5
2017-Oct-18 05:00N 49°57' W 003°16'5 9.7
2017-Oct-18 04:30N 49°59' W 003°09'510.0
2017-Oct-18 04:01N 49°60' W 003°01'510.5
2017-Oct-18 03:30N 50°01' W 002°53'611.0
2017-Oct-18 02:59N 50°03' W 002°45'6913.1
2017-Oct-17 21:43N 50°22' W 001°01'310.7
2017-Oct-17 21:24N 50°23' W 000°56'12 9.1
2017-Oct-17 20:05N 50°26' W 000°38'2 8.1
2017-Oct-17 19:48N 50°27' W 000°34'3 8.0
2017-Oct-17 19:29N 50°27' W 000°30'4 8.2
2017-Oct-17 19:00N 50°28' W 000°24'4 8.5
2017-Oct-17 18:30N 50°29' W 000°18'4 8.9
2017-Oct-17 18:00N 50°30' W 000°11'5 9.4
2017-Oct-17 17:30N 50°31' W 000°04'5 9.8
2017-Oct-17 17:00N 50°32' E 000°03'510.4
2017-Oct-17 16:30N 50°34' E 000°11'611.0
2017-Oct-17 16:00N 50°35' E 000°20'611.4
2017-Oct-17 15:30N 50°37' E 000°28'611.6
2017-Oct-17 15:00N 50°39' E 000°37'611.6
2017-Oct-17 14:30N 50°42' E 000°44'611.2
2017-Oct-17 14:00N 50°46' E 000°52'5 9.9
2017-Oct-17 13:30N 50°48' E 000°58'4 8.8
2017-Oct-17 13:00N 50°51' E 001°03'5 9.8
2017-Oct-17 12:30N 50°54' E 001°10'5 9.2
2017-Oct-17 12:00N 50°57' E 001°15'4 8.3
2017-Oct-17 11:30N 50°60' E 001°20'4 7.7
2017-Oct-17 11:00N 51°02' E 001°25'4 7.1
2017-Oct-17 10:30N 51°05' E 001°29'4 7.3
2017-Oct-17 10:00N 51°07' E 001°33'4 7.5
2017-Oct-17 09:30N 51°09' E 001°38'4 8.3
2017-Oct-17 09:00N 51°12' E 001°43'5 9.2
2017-Oct-17 08:30N 51°16' E 001°47'510.5
2017-Oct-17 08:00N 51°21' E 001°50'611.2
2017-Oct-17 07:30N 51°26' E 001°55'611.9
2017-Oct-17 07:00N 51°30' E 002°01'612.0
2017-Oct-17 06:30N 51°34' E 002°08'811.7
2017-Oct-17 05:47N 51°41' E 002°17'18 8.3
2017-Oct-17 03:37N 51°55' E 002°35'9 5.2
2017-Oct-17 01:48N 52°02' E 002°45'2 4.3
2017-Oct-17 01:26N 52°03' E 002°47'2 4.0
2017-Oct-17 00:58N 52°04' E 002°49'2 5.0
2017-Oct-17 00:29N 52°06' E 002°52'3 7.0
2017-Oct-17 00:00N 52°09' E 002°55'4 7.8
2017-Oct-16 23:29N 52°12' E 002°59'4 8.1
2017-Oct-16 22:59N 52°15' E 003°03'4 8.5
2017-Oct-16 22:29N 52°19' E 003°07'4 9.2
2017-Oct-16 22:00N 52°22' E 003°11'5 9.7
2017-Oct-16 21:30N 52°26' E 003°16'510.3
2017-Oct-16 21:00N 52°30' E 003°21'510.6
2017-Oct-16 20:30N 52°35' E 003°26'610.9
2017-Oct-16 20:00N 52°39' E 003°32'511.0
2017-Oct-16 19:30N 52°43' E 003°37'611.1
2017-Oct-16 18:58N 52°48' E 003°43'2110.5
2017-Oct-16 16:56N 53°03' E 004°08'510.0
2017-Oct-16 16:29N 53°06' E 004°14'5 9.7
2017-Oct-16 16:00N 53°09' E 004°20'12 9.3
2017-Oct-16 14:41N 53°20' E 004°30'11 9.2
2017-Oct-16 13:29N 53°30' E 004°35'5 9.7
2017-Oct-16 13:00N 53°35' E 004°38'510.1
2017-Oct-16 12:30N 53°40' E 004°40'510.5
2017-Oct-16 11:59N 53°45' E 004°44'610.7
2017-Oct-16 11:25N 53°50' E 004°47'261 9.7
2017-Oct-15 08:29N 57°35' E 008°44'5 9.6
2017-Oct-15 08:00N 57°36' E 008°52'6 9.8
2017-Oct-15 07:26N 57°38' E 009°01'5 9.9
2017-Oct-15 06:57N 57°40' E 009°10'510.2
2017-Oct-15 06:28N 57°41' E 009°19'510.3
2017-Oct-15 06:00N 57°42' E 009°28'510.4
2017-Oct-15 05:29N 57°44' E 009°37'510.4
2017-Oct-15 05:00N 57°45' E 009°46'510.4
2017-Oct-15 04:30N 57°47' E 009°56'510.4
2017-Oct-15 04:00N 57°48' E 010°05'510.2
2017-Oct-15 03:30N 57°50' E 010°14'510.0
2017-Oct-15 03:00N 57°52' E 010°23'510.0
2017-Oct-15 02:30N 57°53' E 010°31'5 9.9
2017-Oct-15 02:00N 57°52' E 010°40'5 9.6
2017-Oct-15 01:30N 57°49' E 010°47'5 9.2
2017-Oct-15 00:59N 57°45' E 010°53'5 9.5
2017-Oct-15 00:30N 57°42' E 010°59'5 9.3
2017-Oct-14 23:59N 57°39' E 011°05'5 9.6
2017-Oct-14 23:30N 57°35' E 011°12'510.0
2017-Oct-14 23:00N 57°32' E 011°19'510.0
2017-Oct-14 22:30N 57°29' E 011°25'510.2
2017-Oct-14 22:00N 57°24' E 011°29'510.7
2017-Oct-14 21:30N 57°19' E 011°32'510.3
2017-Oct-14 20:59N 57°14' E 011°35'510.3
2017-Oct-14 20:30N 57°09' E 011°39'510.3
2017-Oct-14 20:00N 57°04' E 011°42'510.6
2017-Oct-14 19:29N 56°59' E 011°45'510.5
2017-Oct-14 18:58N 56°54' E 011°48'510.4
2017-Oct-14 18:30N 56°49' E 011°51'39 9.7
2017-Oct-14 14:29N 56°13' E 012°17'510.3
2017-Oct-14 14:00N 56°10' E 012°24'5 9.9
2017-Oct-14 13:30N 56°08' E 012°32'5 9.2
2017-Oct-14 13:00N 56°04' E 012°37'5 9.0
2017-Oct-14 12:30N 56°00' E 012°41'510.1
2017-Oct-14 12:00N 55°56' E 012°44'510.2
2017-Oct-14 11:31N 55°51' E 012°44'510.6
2017-Oct-14 11:00N 55°45' E 012°42'510.2
2017-Oct-14 10:30N 55°40' E 012°42'5 9.7
2017-Oct-14 10:00N 55°35' E 012°42'5 9.9
2017-Oct-14 09:29N 55°30' E 012°43'510.7
2017-Oct-14 08:59N 55°25' E 012°42'510.6
2017-Oct-14 08:30N 55°20' E 012°41'4 8.3
2017-Oct-14 07:59N 55°17' E 012°47'5 9.8
2017-Oct-14 07:29N 55°16' E 012°55'2410.0
2017-Oct-14 05:04N 55°14' E 013°38'1 9.7
2017-Oct-14 04:57N 55°14' E 013°39'13 9.8
2017-Oct-14 03:36N 55°14' E 014°03'1 9.6
2017-Oct-14 03:28N 55°13' E 014°05'5 9.6
2017-Oct-14 02:56N 55°13' E 014°14'4 9.3
2017-Oct-14 02:29N 55°15' E 014°20'510.0
2017-Oct-14 02:00N 55°19' E 014°25'510.0
2017-Oct-14 01:30N 55°23' E 014°30'510.1
2017-Oct-14 00:58N 55°27' E 014°37'510.0
2017-Oct-14 00:26N 55°30' E 014°45'510.0
2017-Oct-13 23:57N 55°32' E 014°52'510.1
2017-Oct-13 23:30N 55°35' E 014°59'510.2
2017-Oct-13 23:00N 55°37' E 015°07'510.3
2017-Oct-13 22:30N 55°40' E 015°15'510.4
2017-Oct-13 22:00N 55°42' E 015°23'510.6
2017-Oct-13 21:30N 55°45' E 015°31'510.7
2017-Oct-13 21:00N 55°48' E 015°39'510.8
2017-Oct-13 20:30N 55°51' E 015°47'510.9
2017-Oct-13 20:00N 55°53' E 015°56'510.9
2017-Oct-13 19:30N 55°56' E 016°04'611.0
2017-Oct-13 19:00N 55°59' E 016°13'611.3
2017-Oct-13 18:30N 56°02' E 016°21'611.5
2017-Oct-13 18:00N 56°04' E 016°30'611.4
2017-Oct-13 17:30N 56°07' E 016°39'510.8
2017-Oct-13 17:00N 56°11' E 016°46'511.0
2017-Oct-13 16:30N 56°16' E 016°50'232 8.4
2017-Oct-12 12:45N 59°20' E 021°16'1610.1
2017-Oct-12 11:09N 59°23' E 021°47'2 9.9
2017-Oct-12 10:59N 59°24' E 021°47'38 9.9
2017-Oct-12 07:10N 59°36' E 022°57'211.0
2017-Oct-12 07:00N 59°37' E 023°01'511.0
2017-Oct-12 06:30N 59°38' E 023°11'611.0
2017-Oct-12 06:00N 59°39' E 023°22'611.2
2017-Oct-12 05:30N 59°41' E 023°33'611.5
2017-Oct-12 05:00N 59°42' E 023°44'611.2
2017-Oct-12 04:30N 59°44' E 023°54'610.8
2017-Oct-12 03:56N 59°45' E 024°06'511.0
2017-Oct-12 03:30N 59°46' E 024°15'611.1
2017-Oct-12 03:00N 59°48' E 024°26'611.1
2017-Oct-12 02:31N 59°49' E 024°37'611.0
2017-Oct-12 02:00N 59°50' E 024°47'610.8
2017-Oct-12 01:28N 59°52' E 024°58'3811.0
2017-Oct-11 22:03N 59°59' E 026°12'010.8
2017-Oct-11 22:00N 59°59' E 026°13'510.9
2017-Oct-11 21:31N 59°60' E 026°24'611.6
2017-Oct-11 21:00N 60°01' E 026°35'510.2
2017-Oct-11 20:30N 60°01' E 026°45'611.9
2017-Oct-11 20:00N 59°60' E 026°57'4 8.6
2017-Oct-11 19:30N 59°60' E 027°05'510.8
2017-Oct-11 19:01N 60°03' E 027°15'510.7
2017-Oct-11 18:31N 60°06' E 027°24'510.8
2017-Oct-11 18:00N 60°09' E 027°32'510.8
2017-Oct-11 17:30N 60°12' E 027°42'5 9.7
2017-Oct-11 17:00N 60°12' E 027°51'73 4.3
2017-Oct-10 23:59N 59°54' E 030°13'0 0.0
2017-Oct-10 23:30N 59°54' E 030°13'0 0.0
2017-Oct-10 22:58N 59°54' E 030°13'0 0.0
2017-Oct-10 22:24N 59°54' E 030°13'0 0.0
2017-Oct-10 22:00N 59°54' E 030°13'0 0.0
2017-Oct-10 21:30N 59°54' E 030°13'0 0.0
2017-Oct-10 21:00N 59°54' E 030°13'0 0.0
2017-Oct-10 20:24N 59°54' E 030°13'0 0.0
2017-Oct-10 19:53N 59°54' E 030°13'0 0.0
2017-Oct-10 19:26N 59°54' E 030°13'0 0.0
2017-Oct-10 18:58N 59°54' E 030°13'0 0.0
2017-Oct-10 18:30N 59°54' E 030°13'0 0.0
2017-Oct-10 17:50N 59°54' E 030°13'0 0.0
2017-Oct-10 17:29N 59°54' E 030°13'0 0.0
2017-Oct-10 16:57N 59°54' E 030°13'0 0.0
2017-Oct-10 16:29N 59°54' E 030°13'0 0.0
2017-Oct-10 15:58N 59°54' E 030°13'0 0.0
2017-Oct-10 15:29N 59°54' E 030°13'0 0.0
2017-Oct-10 15:00N 59°54' E 030°13'0 0.0
2017-Oct-10 13:53N 59°54' E 030°13'0 0.0
2017-Oct-10 13:28N 59°54' E 030°13'0 0.0
2017-Oct-10 12:55N 59°54' E 030°13'0 0.0
2017-Oct-10 12:24N 59°54' E 030°13'0 0.0
2017-Oct-10 11:59N 59°54' E 030°13'0 0.0
2017-Oct-10 11:26N 59°54' E 030°13'0 0.0
2017-Oct-10 10:55N 59°54' E 030°13'0 0.0
2017-Oct-10 10:30N 59°54' E 030°13'0 0.0
2017-Oct-10 09:56N 59°54' E 030°13'0 0.0
2017-Oct-10 09:28N 59°54' E 030°13'0 0.0
2017-Oct-10 08:57N 59°54' E 030°13'0 0.0
2017-Oct-10 08:30N 59°54' E 030°13'0 0.0
2017-Oct-10 08:00N 59°54' E 030°13'0 0.0
2017-Oct-10 07:30N 59°54' E 030°13'0 0.0
2017-Oct-10 06:58N 59°54' E 030°13'0 0.0
2017-Oct-10 06:29N 59°54' E 030°13'0 0.0
2017-Oct-10 05:58N 59°54' E 030°13'0 0.0
2017-Oct-10 05:29N 59°54' E 030°13'0 0.0
2017-Oct-10 04:58N 59°54' E 030°13'0 0.0
2017-Oct-10 04:23N 59°54' E 030°13'0 0.0
2017-Oct-10 03:53N 59°54' E 030°13'0 0.0
2017-Oct-10 03:30N 59°54' E 030°13'0 0.0
2017-Oct-10 02:55N 59°54' E 030°13'0 0.0
2017-Oct-10 02:29N 59°54' E 030°13'0 0.0
2017-Oct-10 01:58N 59°54' E 030°13'0 0.0
2017-Oct-10 01:29N 59°54' E 030°13'0 0.0
2017-Oct-10 00:57N 59°54' E 030°13'0 0.0
2017-Oct-10 00:23N 59°54' E 030°13'0 0.0
2017-Oct-09 23:58N 59°54' E 030°13'0 0.0
2017-Oct-09 23:28N 59°54' E 030°13'0 0.0
2017-Oct-09 22:59N 59°54' E 030°13'0 0.0
2017-Oct-09 22:23N 59°54' E 030°13'0 0.0
2017-Oct-09 21:58N 59°54' E 030°13'0 0.0
2017-Oct-09 21:29N 59°54' E 030°13'0 0.0
2017-Oct-09 21:00N 59°54' E 030°13'0 0.0
2017-Oct-09 20:27N 59°54' E 030°13'0 0.0
2017-Oct-09 19:58N 59°54' E 030°13'0 0.0
2017-Oct-09 19:29N 59°54' E 030°13'0 0.0
2017-Oct-09 18:56N 59°54' E 030°13'0 0.0
2017-Oct-09 18:29N 59°54' E 030°13'0 0.0
2017-Oct-09 17:58N 59°54' E 030°13'0 0.0
2017-Oct-09 17:30N 59°54' E 030°13'0 0.0
2017-Oct-09 17:00N 59°54' E 030°13'0 0.0
2017-Oct-09 16:27N 59°54' E 030°13'0 0.0
2017-Oct-09 15:53N 59°54' E 030°13'0 0.0
2017-Oct-09 15:27N 59°54' E 030°13'0 0.0
2017-Oct-09 14:57N 59°54' E 030°13'0 0.0
2017-Oct-09 14:30N 59°54' E 030°13'0 0.0
2017-Oct-09 13:53N 59°54' E 030°13'0 0.0
2017-Oct-09 13:30N 59°54' E 030°13'0 0.0
2017-Oct-09 12:59N 59°54' E 030°13'0 0.0
2017-Oct-09 12:25N 59°54' E 030°13'0 0.0
2017-Oct-09 11:59N 59°54' E 030°13'0 0.0
2017-Oct-09 11:29N 59°54' E 030°13'0 0.0
2017-Oct-09 10:58N 59°54' E 030°13'0 0.0
2017-Oct-09 10:25N 59°54' E 030°13'0 0.0
2017-Oct-09 10:00N 59°54' E 030°13'0 0.0
2017-Oct-09 09:30N 59°54' E 030°13'0 0.0
2017-Oct-09 08:54N 59°54' E 030°13'0 0.0
2017-Oct-09 08:28N 59°54' E 030°13'0 0.0
2017-Oct-09 07:57N 59°54' E 030°13'0 0.0
2017-Oct-09 07:29N 59°54' E 030°13'0 0.0
2017-Oct-09 06:56N 59°54' E 030°13'0 0.0
2017-Oct-09 06:24N 59°54' E 030°13'0 0.0
2017-Oct-09 05:59N 59°54' E 030°13'0 0.0
2017-Oct-09 05:27N 59°54' E 030°13'0 0.0
2017-Oct-09 05:00N 59°54' E 030°13'0 0.0
2017-Oct-09 04:25N 59°54' E 030°13'0 0.0
2017-Oct-09 04:00N 59°54' E 030°13'0 0.0
2017-Oct-09 03:30N 59°54' E 030°13'0 0.0
2017-Oct-09 02:57N 59°54' E 030°13'0 0.0
2017-Oct-09 02:30N 59°54' E 030°13'0 0.0
2017-Oct-09 01:59N 59°54' E 030°13'0 0.0
2017-Oct-09 01:29N 59°54' E 030°13'0 0.0
2017-Oct-09 01:00N 59°54' E 030°13'0 0.0
2017-Oct-09 00:23N 59°54' E 030°13'0 0.0
2017-Oct-09 00:00N 59°54' E 030°13'0 0.0
2017-Oct-08 23:30N 59°54' E 030°13'0 0.0
2017-Oct-08 22:58N 59°54' E 030°13'0 0.0
2017-Oct-08 22:30N 59°54' E 030°13'0 0.0
2017-Oct-08 22:00N 59°54' E 030°13'0 0.0
2017-Oct-08 21:28N 59°54' E 030°13'0 0.0
2017-Oct-08 20:57N 59°54' E 030°13'0 0.0
2017-Oct-08 20:30N 59°54' E 030°13'0 0.0
2017-Oct-08 19:59N 59°54' E 030°13'0 0.0
2017-Oct-08 19:28N 59°54' E 030°13'0 0.0
2017-Oct-08 19:00N 59°54' E 030°13'0 0.0
2017-Oct-08 18:30N 59°54' E 030°13'0 0.0
2017-Oct-08 17:59N 59°54' E 030°13'0 0.0
2017-Oct-08 17:29N 59°54' E 030°13'0 0.0
2017-Oct-08 16:59N 59°54' E 030°13'0 0.0
2017-Oct-08 16:28N 59°54' E 030°13'0 0.0
2017-Oct-08 15:53N 59°54' E 030°13'0 0.0
2017-Oct-08 15:29N 59°54' E 030°13'0 0.0
2017-Oct-08 14:57N 59°54' E 030°13'0 0.1
2017-Oct-08 14:31N 59°53' E 030°13'2 3.7
2017-Oct-08 14:00N 59°53' E 030°09'4 7.7
2017-Oct-08 13:31N 59°55' E 030°02'510.6
2017-Oct-08 13:00N 59°57' E 029°52'510.0
2017-Oct-08 12:30N 59°59' E 029°43'  

Dump ship's entire track history